Time;durP1;ratioP1;P1;durP2;ratioP2;P2;SDS_P1;SDS_P2;PMS_P1;PMS_P2;Temp;Humidity;BMP_temperature;BMP_pressure;BME280_temperature;BME280_humidity;BME280_pressure;Samples;Min_cycle;Max_cycle;Signal;HPM_P1;HPM_P2
2022/11/01 00:00:21;;;;;;;;;98.75;90.75;;;;;16.98;60.71;99973.47;5025975;28;11133;-80
2022/11/01 00:03:11;;;;;;;;;93.75;85.50;;;;;16.97;60.71;99974.34;5010199;28;11081;-81
2022/11/01 00:05:40;;;;;;;;;86.25;81.25;;;;;16.91;60.72;99969.22;5011316;28;10729;-81
2022/11/01 00:08:08;;;;;;;;;81.25;71.50;;;;;16.87;60.53;99957.88;5030314;28;11691;-84
2022/11/01 00:10:37;;;;;;;;;85.75;75.25;;;;;16.86;60.86;99960.53;5012829;28;10015;-83
2022/11/01 00:13:06;;;;;;;;;91.75;81.25;;;;;16.84;60.80;99960.59;5013021;28;10109;-80
2022/11/01 00:15:34;;;;;;;;;85.75;76.50;;;;;16.84;60.48;99959.69;5030577;28;10082;-80
2022/11/01 00:18:03;;;;;;;;;83.25;75.00;;;;;16.83;60.90;99952.72;5025926;28;10874;-84
2022/11/01 00:20:33;;;;;;;;;83.00;69.75;;;;;16.80;60.73;99955.34;4992643;28;11083;-83
2022/11/01 00:23:02;;;;;;;;;82.25;72.25;;;;;16.79;60.91;99956.28;5027412;28;11178;-83
2022/11/01 00:25:31;;;;;;;;;87.25;76.25;;;;;16.77;60.70;99956.28;4996447;28;10048;-81
2022/11/01 00:28:00;;;;;;;;;87.75;81.25;;;;;16.49;61.60;99954.16;5047929;28;10477;-80
2022/11/01 00:30:29;;;;;;;;;85.50;79.75;;;;;16.41;62.24;99956.06;5056112;28;10698;-81
2022/11/01 00:32:58;;;;;;;;;90.50;82.25;;;;;16.43;61.74;99961.31;5066997;28;10645;-81
2022/11/01 00:35:26;;;;;;;;;84.50;79.75;;;;;16.45;61.34;99959.53;5016756;28;10582;-81
2022/11/01 00:37:56;;;;;;;;;90.50;85.00;;;;;16.44;61.77;99956.00;5031295;28;10860;-78
2022/11/01 00:40:26;;;;;;;;;90.75;83.25;;;;;16.43;61.29;99956.91;5018805;28;10805;-83
2022/11/01 00:42:55;;;;;;;;;91.50;83.50;;;;;16.46;61.48;99950.72;5044926;28;11628;-81
2022/11/01 00:45:23;;;;;;;;;88.25;82.00;;;;;16.46;61.01;99950.72;5030323;28;10789;-80
2022/11/01 00:47:52;;;;;;;;;88.75;80.75;;;;;16.45;61.01;99954.25;5034604;28;10634;-81
2022/11/01 00:50:21;;;;;;;;;88.50;78.75;;;;;16.45;61.05;99944.59;5033947;28;10478;-80
2022/11/01 00:52:49;;;;;;;;;85.25;81.00;;;;;16.44;60.84;99950.75;5010243;28;11019;-79
2022/11/01 00:55:19;;;;;;;;;95.75;91.25;;;;;16.46;60.84;99938.41;5028017;28;10779;-81
2022/11/01 00:57:48;;;;;;;;;101.25;92.50;;;;;16.48;60.87;99941.91;5010652;28;11892;-81
2022/11/01 01:00:17;;;;;;;;;99.25;95.25;;;;;16.47;60.75;99940.16;4993018;28;11149;-81
2022/11/01 01:02:46;;;;;;;;;101.50;94.50;;;;;16.47;60.40;99934.91;4993531;28;11613;-82
2022/11/01 01:05:15;;;;;;;;;108.25;100.75;;;;;16.49;59.65;99943.63;5029821;28;11592;-83
2022/11/01 01:07:44;;;;;;;;;103.50;94.25;;;;;16.49;59.97;99937.50;5028906;28;11841;-83
2022/11/01 01:10:12;;;;;;;;;108.50;98.75;;;;;16.47;60.03;99932.28;5028120;28;11610;-80
2022/11/01 01:12:42;;;;;;;;;103.00;90.25;;;;;16.48;60.12;99938.41;5030908;28;11612;-80
2022/11/01 01:15:12;;;;;;;;;47.50;28.00;;;;;16.52;60.05;99937.44;5019414;28;11227;-81
2022/11/01 01:17:41;;;;;;;;;105.00;99.25;;;;;16.49;59.89;99935.75;5012173;28;11092;-82
2022/11/01 01:20:11;;;;;;;;;100.50;93.75;;;;;16.45;59.94;99934.06;4995033;28;11324;-84
2022/11/01 01:22:40;;;;;;;;;108.00;97.50;;;;;16.43;60.30;99932.38;5011430;28;11386;-82
2022/11/01 01:25:10;;;;;;;;;97.00;90.00;;;;;16.44;60.07;99924.41;5006625;28;11672;-81
2022/11/01 01:27:38;;;;;;;;;108.00;94.75;;;;;16.46;60.21;99924.41;5063849;28;11354;-82
2022/11/01 01:30:13;;;;;;;;;111.25;101.25;;;;;16.52;60.01;99917.25;5063405;28;11593;-82
2022/11/01 01:32:43;;;;;;;;;102.00;95.75;;;;;16.50;59.50;99918.16;5030931;28;11723;-83
2022/11/01 01:35:12;;;;;;;;;101.50;95.00;;;;;16.49;59.60;99922.56;5033899;28;11461;-82
2022/11/01 01:37:40;;;;;;;;;107.75;99.25;;;;;16.45;59.31;99920.91;5061665;28;11651;-83
2022/11/01 01:40:10;;;;;;;;;86.75;82.00;;;;;16.14;61.02;99924.09;5025028;28;11603;-83
2022/11/01 01:42:40;;;;;;;;;99.25;90.75;;;;;15.89;61.49;99915.72;5011861;28;11650;-83
2022/11/01 01:45:27;;;;;;;;;90.50;87.50;;;;;16.10;60.83;99916.25;5029283;28;11397;-82
2022/11/01 01:48:02;;;;;;;;;102.25;92.00;;;;;16.03;60.77;99912.00;4965403;28;11035;-84
2022/11/01 01:50:35;;;;;;;;;96.00;83.25;;;;;16.10;60.79;99909.22;5021941;28;11427;-82
2022/11/01 01:53:08;;;;;;;;;105.25;94.25;;;;;16.11;60.57;99910.97;5035169;28;12036;-82
2022/11/01 01:55:42;;;;;;;;;96.25;85.50;;;;;16.17;60.56;99900.34;5011034;28;11253;-83
2022/11/01 01:58:13;;;;;;;;;96.00;90.75;;;;;16.15;60.50;99912.66;4991735;28;11201;-82
2022/11/01 02:00:44;;;;;;;;;106.25;95.75;;;;;16.20;59.95;99904.69;5015725;28;10876;-82
2022/11/01 02:03:14;;;;;;;;;97.00;93.75;;;;;16.22;59.80;99904.66;5007142;28;11134;-83
2022/11/01 02:05:50;;;;;;;;;90.50;82.75;;;;;16.31;60.20;99908.00;5016435;28;11155;-83
2022/11/01 02:08:26;;;;;;;;;89.50;85.50;;;;;16.26;59.60;99903.72;5044046;28;11356;-85
2022/11/01 02:11:00;;;;;;;;;94.50;86.50;;;;;16.25;59.89;99902.84;4995522;28;11250;-83
2022/11/01 02:13:29;;;;;;;;;94.50;88.75;;;;;16.28;59.44;99896.66;4996308;28;10930;-82
2022/11/01 02:16:21;;;;;;;;;89.75;81.75;;;;;16.40;59.55;99906.09;5023070;28;10978;-82
2022/11/01 02:19:03;;;;;;;;;97.25;87.50;;;;;16.35;59.67;99896.53;5043877;28;11012;-84
2022/11/01 02:21:51;;;;;;;;;95.50;83.50;;;;;16.35;59.69;99895.63;5029489;28;11000;-83
2022/11/01 02:24:39;;;;;;;;;101.25;87.25;;;;;16.32;59.80;99893.06;5027883;28;10949;-84
2022/11/01 02:27:14;;;;;;;;;99.25;88.50;;;;;16.27;59.86;99885.25;5030106;28;10972;-82
2022/11/01 02:30:10;;;;;;;;;92.75;82.25;;;;;16.37;59.30;99896.50;5032312;28;11077;-83
2022/11/01 02:32:53;;;;;;;;;86.75;77.25;;;;;16.28;59.98;99886.13;4965251;28;10855;-83
2022/11/01 02:35:30;;;;;;;;;91.75;86.75;;;;;16.24;59.30;99890.59;4940829;29;10687;-83
2022/11/01 02:38:06;;;;;;;;;94.25;85.50;;;;;15.92;61.07;99893.78;4947067;28;11030;-82
2022/11/01 02:40:41;;;;;;;;;95.00;85.25;;;;;15.44;63.49;99909.38;4946655;28;11187;-81
2022/11/01 02:43:19;;;;;;;;;97.25;88.00;;;;;15.53;63.14;99906.63;4946688;28;11098;-84
2022/11/01 02:45:50;;;;;;;;;105.75;96.75;;;;;15.62;62.43;99905.63;4932853;28;11138;-81
2022/11/01 02:48:23;;;;;;;;;101.50;92.25;;;;;15.45;63.08;99903.25;4935829;28;11676;-81
2022/11/01 02:50:56;;;;;;;;;102.50;91.50;;;;;15.65;61.82;99900.31;4929632;28;11713;-81
2022/11/01 02:53:24;;;;;;;;;108.00;95.00;;;;;15.70;61.03;99896.72;4952394;28;11638;-80
2022/11/01 02:55:53;;;;;;;;;103.00;91.75;;;;;15.82;60.18;99889.56;4952711;28;12491;-84
2022/11/01 02:58:24;;;;;;;;;104.50;95.00;;;;;15.87;59.78;99893.84;4933624;28;11337;-83
2022/11/01 03:00:54;;;;;;;;;99.50;87.00;;;;;15.88;59.82;99892.97;4937897;28;11656;-83
2022/11/01 03:03:32;;;;;;;;;94.75;87.50;;;;;15.81;59.62;99893.94;4940020;28;11289;-82
2022/11/01 03:06:11;;;;;;;;;89.00;81.75;;;;;15.72;60.67;99902.81;4924913;28;11331;-83
2022/11/01 03:08:45;;;;;;;;;98.50;90.75;;;;;15.54;61.60;99909.25;4953788;28;11337;-82
2022/11/01 03:11:16;;;;;;;;;89.50;84.00;;;;;14.99;64.82;99915.25;5027718;28;11326;-82
2022/11/01 03:13:57;;;;;;;;;95.50;85.75;;;;;14.86;65.30;99916.28;5028909;28;10828;-82
2022/11/01 03:16:32;;;;;;;;;93.25;85.75;;;;;14.92;65.23;99918.84;5011969;28;10863;-82
2022/11/01 03:19:15;;;;;;;;;88.50;79.50;;;;;15.12;64.36;99914.22;5045708;28;10617;-84
2022/11/01 03:21:51;;;;;;;;;87.00;77.00;;;;;15.14;64.28;99911.53;5047010;28;10763;-84
2022/11/01 03:24:24;;;;;;;;;89.00;78.00;;;;;15.31;63.11;99903.44;5014251;28;10104;-82
2022/11/01 03:27:00;;;;;;;;;89.25;79.00;;;;;15.10;64.09;99920.34;5045908;28;10575;-85
2022/11/01 03:29:32;;;;;;;;;80.75;68.50;;;;;14.38;66.64;99919.41;5028520;28;10600;-83
2022/11/01 03:32:03;;;;;;;;;80.00;65.75;;;;;14.12;67.80;99925.78;5028802;28;9971;-82
2022/11/01 03:34:37;;;;;;;;;83.00;66.00;;;;;14.38;66.96;99922.03;4977162;28;9631;-84
2022/11/01 03:37:11;;;;;;;;;76.67;58.33;;;;;14.66;65.42;99927.88;5028394;28;9448;-82
2022/11/01 03:39:45;;;;;;;;;81.33;63.67;;;;;14.86;64.60;99929.41;5028884;28;9209;-80
2022/11/01 03:42:17;;;;;;;;;83.50;70.00;;;;;15.01;63.61;99916.09;5027262;28;9364;-83
2022/11/01 03:44:49;;;;;;;;;88.50;80.00;;;;;15.17;63.15;99915.00;4994354;28;9934;-82
2022/11/01 03:47:19;;;;;;;;;82.50;73.00;;;;;15.29;62.61;99915.72;5011451;28;10069;-83
2022/11/01 03:50:13;;;;;;;;;88.00;78.50;;;;;15.48;61.97;99918.97;4976544;28;10276;-81
2022/11/01 03:52:42;;;;;;;;;86.50;77.25;;;;;15.42;61.94;99913.81;5025559;28;10545;-81
2022/11/01 03:55:18;;;;;;;;;81.50;65.50;;;;;15.45;61.49;99919.03;5027301;28;9995;-82
2022/11/01 03:57:49;;;;;;;;;82.00;69.50;;;;;15.45;61.66;99908.50;5031083;28;10203;-82
2022/11/01 04:00:20;;;;;;;;;83.00;67.67;;;;;15.35;61.86;99907.78;5046223;28;9871;-83
2022/11/01 04:02:49;;;;;;;;;82.00;70.75;;;;;15.41;61.57;99910.31;5016931;28;9420;-80
2022/11/01 04:05:21;;;;;;;;;83.00;68.33;;;;;15.46;61.62;99905.84;4992676;28;9562;-80
2022/11/01 04:07:51;;;;;;;;;77.67;61.67;;;;;15.48;61.46;99909.34;5009057;28;9426;-81
2022/11/01 04:10:20;;;;;;;;;76.33;61.33;;;;;15.49;61.79;99912.81;4992733;28;9340;-81
2022/11/01 04:12:50;;;;;;;;;78.75;62.75;;;;;15.02;62.75;99915.22;5008175;28;9262;-83
2022/11/01 04:21:05;;;;;;;;;76.00;59.00;;;;;14.28;65.81;99916.00;5019171;28;9275;-83
2022/11/01 04:23:35;;;;;;;;;82.25;68.00;;;;;14.29;65.49;99915.13;4968759;28;9073;-81
2022/11/01 04:26:06;;;;;;;;;77.00;58.67;;;;;14.41;65.00;99915.00;4945657;29;9779;-82
2022/11/01 04:28:36;;;;;;;;;74.67;58.33;;;;;14.52;64.72;99911.41;4918646;29;9199;-83
2022/11/01 04:31:06;;;;;;;;;72.00;56.25;;;;;14.55;64.34;99912.22;4939840;29;8976;-83
2022/11/01 04:33:35;;;;;;;;;72.00;56.67;;;;;13.98;65.97;99914.53;4930734;29;8904;-83
2022/11/01 04:36:07;;;;;;;;;70.50;54.25;;;;;13.60;68.12;99919.19;4915386;29;8993;-81
2022/11/01 04:38:36;;;;;;;;;63.00;52.00;;;;;13.05;70.81;99920.34;4927542;29;8891;-82
2022/11/01 04:41:05;;;;;;;;;65.33;51.67;;;;;13.18;70.22;99918.53;4929137;29;8866;-82
2022/11/01 04:43:34;;;;;;;;;63.50;50.50;;;;;13.29;70.19;99917.59;4925580;28;8993;-84
2022/11/01 04:46:03;;;;;;;;;57.25;46.25;;;;;13.67;68.88;99919.13;4954583;28;8870;-82
2022/11/01 04:48:32;;;;;;;;;65.00;52.75;;;;;13.87;67.42;99913.75;4955903;28;8901;-81
2022/11/01 04:51:02;;;;;;;;;62.50;50.50;;;;;14.03;66.81;99918.84;4978345;28;8867;-81
2022/11/01 04:53:32;;;;;;;;;65.00;51.50;;;;;14.09;66.38;99924.94;4963215;28;8871;-82
2022/11/01 04:56:02;;;;;;;;;64.50;51.25;;;;;14.20;66.08;99916.06;4992893;28;8849;-83
2022/11/01 04:58:32;;;;;;;;;62.75;50.25;;;;;14.18;65.68;99919.59;5006898;28;8880;-84
2022/11/01 05:01:05;;;;;;;;;70.00;54.75;;;;;14.26;65.53;99912.53;4974819;28;8846;-83
2022/11/01 05:03:34;;;;;;;;;73.50;55.00;;;;;14.35;64.89;99903.72;5007741;28;8901;-79
2022/11/01 05:06:03;;;;;;;;;65.00;50.67;;;;;14.47;64.29;99905.31;4992173;28;8842;-83
2022/11/01 05:08:33;;;;;;;;;71.00;57.00;;;;;14.50;63.86;99905.28;5007499;28;9106;-83
2022/11/01 05:11:02;;;;;;;;;73.00;58.00;;;;;14.57;63.45;99907.88;5030413;28;8858;-81
2022/11/01 05:13:31;;;;;;;;;69.00;55.50;;;;;14.64;62.98;99903.41;5026763;28;8953;-83
2022/11/01 05:16:02;;;;;;;;;69.00;53.00;;;;;14.71;62.92;99907.72;5021410;28;8874;-80
2022/11/01 05:18:47;;;;;;;;;77.67;61.33;;;;;14.43;63.47;99897.47;5042251;28;8847;-80
2022/11/01 05:21:16;;;;;;;;;79.33;61.67;;;;;13.93;65.29;99901.47;5028350;28;9329;-80
2022/11/01 05:23:47;;;;;;;;;93.25;82.00;;;;;13.99;65.43;99906.66;5028904;28;9452;-80
2022/11/01 05:26:16;;;;;;;;;88.00;72.25;;;;;14.19;64.71;99903.84;5030164;28;11309;-83
2022/11/01 05:28:46;;;;;;;;;73.00;58.25;;;;;14.01;65.19;99904.03;5027667;28;9897;-84
2022/11/01 05:31:15;;;;;;;;;78.33;62.00;;;;;14.00;65.20;99905.75;5027693;28;9390;-83
2022/11/01 05:33:45;;;;;;;;;77.25;61.50;;;;;13.66;66.81;99913.03;5025618;28;9268;-83
2022/11/01 05:36:13;;;;;;;;;71.00;58.00;;;;;13.57;67.22;99913.97;5011336;28;9584;-83
2022/11/01 05:38:42;;;;;;;;;77.33;59.67;;;;;13.79;66.62;99914.66;5003092;28;9297;-84
2022/11/01 05:41:13;;;;;;;;;79.33;61.33;;;;;13.84;66.27;99912.91;5002929;28;9461;-83
2022/11/01 05:43:42;;;;;;;;;77.25;62.75;;;;;14.08;65.52;99924.03;4955632;28;9434;-84
2022/11/01 05:46:11;;;;;;;;;75.33;59.67;;;;;14.15;64.74;99923.09;4981940;28;9391;-82
2022/11/01 05:48:42;;;;;;;;;78.25;62.75;;;;;14.27;64.46;99919.50;4956760;28;10148;-81
2022/11/01 05:51:11;;;;;;;;;75.00;57.00;;;;;14.47;64.00;99926.31;4987520;28;9427;-83
2022/11/01 05:53:40;;;;;;;;;78.00;60.67;;;;;14.61;63.28;99927.94;4986720;28;8884;-83
2022/11/01 05:56:09;;;;;;;;;83.25;66.75;;;;;14.39;63.89;99929.88;4971288;28;9336;-83
2022/11/01 05:58:38;;;;;;;;;74.33;59.67;;;;;14.19;64.75;99934.44;4967154;28;9540;-83
2022/11/01 06:01:07;;;;;;;;;67.00;52.33;;;;;14.42;63.93;99928.97;4968380;28;9145;-84
2022/11/01 06:03:37;;;;;;;;;69.50;53.50;;;;;14.62;63.56;99923.56;4968484;28;9145;-83
2022/11/01 06:06:07;;;;;;;;;71.00;56.67;;;;;14.82;62.86;99932.09;4965786;28;9701;-86
2022/11/01 06:08:36;;;;;;;;;72.33;58.00;;;;;15.02;62.25;99920.47;4965517;28;8976;-84
2022/11/01 06:11:06;;;;;;;;;72.67;59.67;;;;;15.17;61.67;99920.25;4997547;28;9117;-84
2022/11/01 06:13:36;;;;;;;;;75.67;59.00;;;;;15.33;61.35;99920.03;4992358;28;9070;-83
2022/11/01 06:16:08;;;;;;;;;77.33;63.00;;;;;15.49;60.65;99924.19;4978860;28;9215;-86
2022/11/01 06:18:37;;;;;;;;;79.33;62.67;;;;;15.61;60.35;99928.41;5010773;28;9356;-85
2022/11/01 06:21:06;;;;;;;;;83.00;68.00;;;;;15.72;60.03;99921.22;4981250;28;10065;-82
2022/11/01 06:23:35;;;;;;;;;78.00;62.25;;;;;15.75;59.55;99925.63;4994125;28;9725;-84
2022/11/01 06:26:05;;;;;;;;;86.75;77.75;;;;;15.31;60.34;99934.97;4944848;28;9584;-86
2022/11/01 06:28:34;;;;;;;;;65.25;50.75;;;;;14.52;64.10;99940.28;5017232;28;10286;-88
2022/11/01 06:31:06;;;;;;;;;83.25;70.50;;;;;14.02;66.39;99948.56;5011840;28;10051;-87
2022/11/01 06:33:39;;;;;;;;;70.25;53.50;;;;;13.82;66.81;99953.97;5021983;28;9836;-85
2022/11/01 06:36:11;;;;;;;;;87.25;75.00;;;;;13.47;68.49;99958.56;5010981;28;10227;-89
2022/11/01 06:38:40;;;;;;;;;88.25;72.50;;;;;13.57;68.86;99961.16;5026722;28;10650;-87
2022/11/01 06:41:10;;;;;;;;;80.75;66.75;;;;;14.04;67.29;99948.56;5013185;28;10156;-80
2022/11/01 06:43:39;;;;;;;;;84.00;70.25;;;;;14.43;65.88;99939.47;4999838;28;10089;-87
2022/11/01 06:46:09;;;;;;;;;77.50;62.75;;;;;14.78;65.03;99947.88;4963845;28;10090;-82
2022/11/01 06:48:39;;;;;;;;;79.33;61.33;;;;;15.10;63.84;99942.22;5004247;28;9514;-84
2022/11/01 06:51:08;;;;;;;;;86.00;74.75;;;;;15.36;63.21;99934.00;4987561;28;9553;-83
2022/11/01 06:53:37;;;;;;;;;82.50;70.50;;;;;15.60;62.17;99938.06;4991114;28;10197;-83
2022/11/01 06:56:07;;;;;;;;;88.00;81.00;;;;;15.80;61.61;99934.28;5014126;28;9867;-85
2022/11/01 06:58:36;;;;;;;;;77.75;62.75;;;;;15.99;60.96;99937.47;5032439;28;10609;-84
2022/11/01 07:01:05;;;;;;;;;81.25;67.00;;;;;16.01;60.71;99934.81;5013478;28;9644;-80
2022/11/01 07:03:34;;;;;;;;;77.25;66.50;;;;;16.03;60.30;99941.81;4995408;28;9995;-80
2022/11/01 07:06:04;;;;;;;;;79.25;67.25;;;;;15.98;60.88;99933.13;5025719;28;10024;-82
2022/11/01 07:08:33;;;;;;;;;80.25;66.50;;;;;15.95;60.95;99935.78;5010591;28;9921;-82
2022/11/01 07:11:05;;;;;;;;;82.00;71.75;;;;;16.01;60.87;99937.47;5027734;28;10062;-83
2022/11/01 07:13:35;;;;;;;;;75.25;63.25;;;;;15.88;61.93;99932.41;5011582;28;10266;-84
2022/11/01 07:16:06;;;;;;;;;80.00;69.75;;;;;15.96;62.23;99935.78;4995949;28;10241;-85
2022/11/01 07:18:35;;;;;;;;;79.75;67.50;;;;;15.98;62.09;99941.03;5030039;28;9893;-84
2022/11/01 07:21:05;;;;;;;;;87.25;81.00;;;;;16.04;61.66;99940.91;5031522;28;10363;-82
2022/11/01 07:23:34;;;;;;;;;77.00;64.00;;;;;16.22;61.50;99938.84;5001856;28;10891;-81
2022/11/01 07:26:03;;;;;;;;;80.75;71.00;;;;;16.50;60.59;99941.88;5040563;28;10294;-78
2022/11/01 07:28:32;;;;;;;;;78.75;66.00;;;;;16.30;61.17;99953.63;5043210;28;10313;-80
2022/11/01 07:31:01;;;;;;;;;82.00;71.75;;;;;16.05;62.44;99952.28;5070146;28;10439;-81
2022/11/01 07:33:30;;;;;;;;;80.50;67.50;;;;;16.00;63.44;99954.16;5018035;28;10299;-79
2022/11/01 07:35:58;;;;;;;;;77.00;64.50;;;;;15.99;64.00;99963.78;5051368;28;9665;-80
2022/11/01 07:38:28;;;;;;;;;77.50;61.50;;;;;15.93;64.21;99962.13;5015454;28;9401;-78
2022/11/01 07:40:57;;;;;;;;;73.00;60.25;;;;;15.94;64.78;99963.88;5048052;28;9540;-80
2022/11/01 07:43:25;;;;;;;;;77.50;65.75;;;;;16.06;63.66;99961.94;5050653;28;9479;-81
2022/11/01 07:45:58;;;;;;;;;77.25;65.50;;;;;16.23;64.25;99959.03;5035398;28;9562;-79
2022/11/01 07:48:27;;;;;;;;;79.00;63.50;;;;;16.25;64.75;99962.50;5053151;28;10136;-79
2022/11/01 07:50:56;;;;;;;;;76.25;66.25;;;;;16.65;63.16;99961.78;5070702;28;10723;-79
2022/11/01 07:53:25;;;;;;;;;76.50;65.50;;;;;17.03;62.02;99965.47;5060597;28;9989;-79
2022/11/01 07:55:55;;;;;;;;;80.75;66.50;;;;;17.46;61.30;99957.50;5063465;28;9695;-79
2022/11/01 07:58:23;;;;;;;;;76.50;65.00;;;;;17.85;60.25;99957.53;5058861;28;9894;-78
2022/11/01 08:00:52;;;;;;;;;75.75;65.25;;;;;18.15;58.63;99955.06;5057303;28;10691;-81
2022/11/01 08:03:20;;;;;;;;;80.25;73.00;;;;;18.50;58.13;99945.34;5013993;28;9727;-73
2022/11/01 08:05:49;;;;;;;;;77.75;64.50;;;;;18.84;57.56;99949.75;5009556;28;9678;-73
2022/11/01 08:08:18;;;;;;;;;81.00;74.50;;;;;19.10;56.96;99941.09;5009459;28;9785;-70
2022/11/01 08:10:47;;;;;;;;;80.50;67.75;;;;;19.37;56.04;99939.38;5007057;28;10082;-73
2022/11/01 08:13:18;;;;;;;;;76.00;67.50;;;;;19.62;55.24;99939.50;5009553;28;10146;-70
2022/11/01 08:15:48;;;;;;;;;78.25;68.00;;;;;19.82;55.03;99938.88;5009388;28;10074;-70
2022/11/01 08:18:17;;;;;;;;;79.50;69.25;;;;;20.07;54.18;99940.72;5011299;28;9716;-71
2022/11/01 08:20:46;;;;;;;;;78.25;70.50;;;;;20.22;54.11;99939.34;5026032;28;9850;-70
2022/11/01 08:23:15;;;;;;;;;77.50;68.50;;;;;20.21;53.33;99938.50;5027525;28;10191;-69
2022/11/01 08:25:44;;;;;;;;;75.25;65.00;;;;;20.41;52.79;99939.59;5028374;28;9714;-70
2022/11/01 08:28:15;;;;;;;;;78.00;68.00;;;;;20.58;52.61;99937.19;5026013;28;9802;-71
2022/11/01 08:30:47;;;;;;;;;78.50;68.25;;;;;20.79;52.13;99934.75;5027294;28;9989;-74
2022/11/01 08:33:15;;;;;;;;;76.25;62.50;;;;;20.93;51.56;99928.94;5058453;28;10068;-71
2022/11/01 08:35:45;;;;;;;;;77.50;69.25;;;;;21.09;51.09;99931.88;5027898;28;10094;-70
2022/11/01 08:38:18;;;;;;;;;80.25;70.75;;;;;21.17;50.73;99937.75;5027904;28;10280;-69
2022/11/01 08:40:47;;;;;;;;;76.75;68.50;;;;;21.27;50.48;99935.63;5037634;28;10424;-70
2022/11/01 08:43:15;;;;;;;;;78.25;72.25;;;;;21.36;50.43;99930.84;5028376;28;10284;-69
2022/11/01 08:45:46;;;;;;;;;75.25;66.00;;;;;21.41;50.04;99931.50;5028830;28;10397;-72
2022/11/01 08:48:14;;;;;;;;;75.25;65.00;;;;;21.47;49.71;99937.53;5028378;28;10228;-71
2022/11/01 08:50:43;;;;;;;;;72.00;62.75;;;;;21.51;49.64;99934.72;4993534;28;9969;-73
2022/11/01 08:53:14;;;;;;;;;73.25;64.00;;;;;21.55;49.46;99930.13;5028151;28;9724;-72
2022/11/01 08:55:42;;;;;;;;;72.50;59.75;;;;;21.63;49.33;99936.00;5026160;28;9872;-74
2022/11/01 08:58:11;;;;;;;;;72.00;61.25;;;;;21.65;49.08;99928.00;5027505;28;9651;-73
2022/11/01 09:00:40;;;;;;;;;69.25;59.25;;;;;21.60;49.00;99928.16;5027652;28;9917;-72
2022/11/01 09:03:10;;;;;;;;;75.25;61.50;;;;;21.69;49.28;99938.41;5059389;28;9794;-70
2022/11/01 09:05:39;;;;;;;;;68.75;57.50;;;;;21.75;48.94;99926.69;5026375;28;9656;-71
2022/11/01 09:08:08;;;;;;;;;73.33;59.00;;;;;21.78;48.98;99926.56;5059464;28;9640;-71
2022/11/01 09:10:36;;;;;;;;;75.00;63.75;;;;;21.84;48.92;99921.00;5027832;28;9417;-70
2022/11/01 09:13:05;;;;;;;;;70.67;60.67;;;;;21.92;48.60;99928.66;5026132;28;10375;-70
2022/11/01 09:15:34;;;;;;;;;71.67;60.00;;;;;21.95;48.29;99921.44;5027795;28;9461;-70
2022/11/01 09:18:07;;;;;;;;;75.00;64.67;;;;;22.09;48.27;99925.28;5024746;28;9242;-71
2022/11/01 09:20:37;;;;;;;;;67.00;53.00;;;;;22.10;48.21;99921.72;5027482;28;9486;-70
2022/11/01 09:23:06;;;;;;;;;74.33;61.67;;;;;22.13;48.15;99925.09;5059024;28;9339;-70
2022/11/01 09:25:35;;;;;;;;;71.33;61.00;;;;;22.15;48.26;99923.22;5008624;28;9401;-70
2022/11/01 09:28:04;;;;;;;;;71.00;59.00;;;;;22.18;47.83;99919.59;4991533;28;9292;-75
2022/11/01 09:30:33;;;;;;;;;69.67;59.33;;;;;22.17;47.72;99921.41;5008612;28;9487;-82
2022/11/01 09:33:04;;;;;;;;;71.00;58.33;;;;;22.24;47.81;99927.28;5044487;28;9293;-82
2022/11/01 09:35:34;;;;;;;;;72.67;60.33;;;;;22.23;47.47;99922.94;5029013;28;9360;-80
2022/11/01 09:38:05;;;;;;;;;73.75;64.00;;;;;22.26;47.36;99928.13;5027762;28;9340;-81
2022/11/01 09:40:44;;;;;;;;;74.50;65.50;;;;;22.25;47.59;99926.41;5027567;28;9583;-86
2022/11/01 09:43:20;;;;;;;;;71.50;61.50;;;;;22.26;47.41;99927.28;5027748;28;9649;-81
2022/11/01 09:45:52;;;;;;;;;72.50;62.75;;;;;22.23;47.43;99928.25;5024224;28;9592;-81
2022/11/01 09:48:24;;;;;;;;;70.25;59.75;;;;;22.24;47.66;99924.63;4992326;28;9608;-81
2022/11/01 09:50:54;;;;;;;;;71.33;60.67;;;;;22.30;47.50;99919.09;5043792;28;9485;-81
2022/11/01 09:53:28;;;;;;;;;75.25;64.25;;;;;22.36;47.40;99908.22;5027788;28;9299;-82
2022/11/01 09:56:04;;;;;;;;;73.50;63.25;;;;;22.50;47.18;99909.41;5031933;28;9643;-83
2022/11/01 09:58:48;;;;;;;;;72.75;64.75;;;;;22.64;46.89;99906.97;5049486;28;9652;-81
2022/11/01 10:01:37;;;;;;;;;77.75;65.50;;;;;22.70;46.88;99908.50;5034114;28;9911;-80
2022/11/01 10:04:32;;;;;;;;;75.33;60.00;;;;;22.84;46.79;99910.56;5050077;28;9552;-82
2022/11/01 10:07:08;;;;;;;;;74.75;60.75;;;;;22.77;46.41;99910.81;5031091;28;10159;-83
2022/11/01 10:09:47;;;;;;;;;75.25;63.00;;;;;22.87;46.61;99905.97;5022818;28;9899;-81
2022/11/01 10:12:30;;;;;;;;;75.00;59.33;;;;;22.96;46.31;99902.88;5017219;28;9597;-85
2022/11/01 10:15:12;;;;;;;;;70.50;56.75;;;;;23.00;46.02;99900.94;5047147;28;9421;-81
2022/11/01 10:17:49;;;;;;;;;78.50;63.25;;;;;22.92;46.50;99897.75;5034816;28;9626;-81
2022/11/01 10:20:24;;;;;;;;;72.67;58.67;;;;;22.90;46.09;99899.63;5030206;28;9578;-82
2022/11/01 10:22:53;;;;;;;;;72.67;56.33;;;;;22.98;45.90;99903.66;5029588;28;9561;-84
2022/11/01 10:25:25;;;;;;;;;72.67;58.33;;;;;23.01;45.89;99904.47;5046450;28;10501;-82
2022/11/01 10:28:04;;;;;;;;;70.67;56.33;;;;;23.09;45.43;99905.00;5043494;28;9482;-83
2022/11/01 10:30:38;;;;;;;;;73.25;60.75;;;;;23.10;45.51;99899.63;5029337;28;9436;-81
2022/11/01 10:33:24;;;;;;;;;70.67;56.00;;;;;23.22;45.20;99899.97;5029163;28;9407;-83
2022/11/01 10:35:57;;;;;;;;;76.67;58.33;;;;;23.27;45.04;99889.94;5029555;28;9412;-82
2022/11/01 10:38:35;;;;;;;;;60.33;49.67;;;;;23.41;44.80;99886.66;5029326;28;9390;-81
2022/11/01 10:41:35;;;;;;;;;77.25;65.25;;;;;23.51;44.76;99890.59;5035428;28;9324;-83
2022/11/01 10:44:12;;;;;;;;;77.67;63.00;;;;;23.46;44.37;99884.63;5031255;28;9402;-82
2022/11/01 10:46:45;;;;;;;;;71.50;56.75;;;;;23.52;44.22;99885.19;5011133;28;9649;-84
2022/11/01 10:49:23;;;;;;;;;76.33;60.00;;;;;23.58;43.79;99877.84;5020519;28;9550;-81
2022/11/01 10:51:56;;;;;;;;;79.50;61.50;;;;;23.58;44.00;99877.84;5007371;28;9365;-83
2022/11/01 10:54:29;;;;;;;;;69.33;55.67;;;;;23.70;43.89;99872.75;5062933;28;9734;-85
2022/11/01 10:57:03;;;;;;;;;69.67;55.67;;;;;23.87;43.70;99865.78;5066231;28;9170;-82
2022/11/01 10:59:36;;;;;;;;;69.50;56.00;;;;;23.97;43.34;99869.72;5035027;28;9479;-79
2022/11/01 11:02:24;;;;;;;;;72.75;62.25;;;;;24.07;43.20;99868.28;5019106;28;9636;-82
2022/11/01 11:04:54;;;;;;;;;72.25;58.25;;;;;24.09;43.17;99865.56;5035476;28;10539;-81
2022/11/01 11:07:24;;;;;;;;;73.00;59.75;;;;;24.24;42.65;99863.91;5036040;28;10654;-83
2022/11/01 11:09:53;;;;;;;;;75.75;64.25;;;;;24.36;42.34;99865.06;5032863;28;9471;-82
2022/11/01 11:12:26;;;;;;;;;76.50;62.50;;;;;24.49;41.88;99863.47;5031289;28;9601;-81
2022/11/01 11:15:00;;;;;;;;;74.00;63.75;;;;;24.48;41.47;99859.94;4996845;28;9577;-82
2022/11/01 11:17:31;;;;;;;;;74.50;63.00;;;;;24.58;41.70;99856.81;5046676;28;9773;-81
2022/11/01 11:20:03;;;;;;;;;74.50;62.00;;;;;24.70;41.41;99857.00;5029486;28;9933;-82
2022/11/01 11:22:38;;;;;;;;;78.25;69.75;;;;;24.78;41.10;99853.06;5030544;28;9898;-81
2022/11/01 11:25:16;;;;;;;;;75.75;64.50;;;;;24.82;40.74;99859.94;5048444;28;10055;-80
2022/11/01 11:27:51;;;;;;;;;74.25;63.50;;;;;24.82;41.01;99855.50;5032647;28;10059;-82
2022/11/01 11:30:29;;;;;;;;;78.00;68.25;;;;;24.83;40.94;99854.53;5015640;28;9811;-83
2022/11/01 11:33:02;;;;;;;;;76.00;66.75;;;;;24.76;40.98;99855.81;5014087;28;10174;-83
2022/11/01 11:35:36;;;;;;;;;75.50;62.75;;;;;24.69;41.17;99852.63;5033754;28;10237;-82
2022/11/01 11:38:06;;;;;;;;;80.50;72.50;;;;;24.79;40.98;99852.97;5031596;28;9893;-82
2022/11/01 11:40:44;;;;;;;;;76.50;65.50;;;;;24.90;40.94;99855.06;5014559;28;10147;-82
2022/11/01 11:43:23;;;;;;;;;80.75;71.75;;;;;24.93;41.04;99846.03;5016272;28;10176;-82
2022/11/01 11:46:04;;;;;;;;;80.25;68.50;;;;;24.92;41.01;99842.50;5016093;28;10264;-82